Time;durP1;ratioP1;P1;durP2;ratioP2;P2;SDS_P1;SDS_P2;PMS_P1;PMS_P2;Temp;Humidity;BMP_temperature;BMP_pressure;BME280_temperature;BME280_humidity;BME280_pressure;Samples;Min_cycle;Max_cycle;Signal;HPM_P1;HPM_P2
2021/06/25 00:00:02;;;;;;;7.13;6.00;;;;;;;15.72;81.50;101174.28;4994167;28;20073;-83
2021/06/25 00:02:30;;;;;;;8.40;7.18;;;;;;;15.68;81.58;101175.25;5003854;28;20519;-83
2021/06/25 00:04:57;;;;;;;8.55;6.05;;;;;;;15.67;81.83;101168.25;4987015;28;20575;-82
2021/06/25 00:07:23;;;;;;;7.95;5.53;;;;;;;15.66;81.46;101174.44;4974478;28;20054;-83
2021/06/25 00:09:50;;;;;;;9.18;6.28;;;;;;;15.63;81.98;101177.13;4988954;28;20246;-82
2021/06/25 00:12:17;;;;;;;8.18;6.72;;;;;;;15.63;82.26;101174.50;4989043;28;20639;-83
2021/06/25 00:14:46;;;;;;;7.10;6.40;;;;;;;15.64;82.18;101178.88;4982566;28;20053;-83
2021/06/25 00:17:13;;;;;;;7.07;6.47;;;;;;;15.62;82.24;101175.38;4986699;28;20504;-81
2021/06/25 00:19:39;;;;;;;5.72;5.15;;;;;;;15.61;82.19;101169.25;4988999;28;20045;-83
2021/06/25 00:22:06;;;;;;;7.50;5.95;;;;;;;15.59;82.27;101171.06;4984297;28;20078;-83
2021/06/25 00:24:34;;;;;;;5.70;5.20;;;;;;;15.55;82.55;101167.63;4968365;28;20049;-83
2021/06/25 00:27:01;;;;;;;7.90;6.65;;;;;;;15.52;82.66;101172.94;4984015;28;20618;-83
2021/06/25 00:29:29;;;;;;;5.97;5.47;;;;;;;15.48;82.71;101188.88;4988099;28;20507;-82
2021/06/25 00:31:55;;;;;;;7.63;6.53;;;;;;;15.41;83.05;101192.53;4983772;28;20056;-82
2021/06/25 00:34:24;;;;;;;6.10;5.60;;;;;;;15.34;83.32;101195.31;4984992;28;20053;-83
2021/06/25 00:36:51;;;;;;;7.03;5.90;;;;;;;15.30;83.51;101196.25;4979090;28;20057;-82
2021/06/25 00:39:20;;;;;;;9.57;6.65;;;;;;;15.27;83.45;101203.38;4984965;28;20042;-83
2021/06/25 00:41:46;;;;;;;7.22;6.53;;;;;;;15.22;83.68;101193.78;4988344;28;20471;-82
2021/06/25 00:44:22;;;;;;;4.90;4.45;;;;;;;15.17;83.75;101198.28;4983588;28;20046;-82
2021/06/25 00:46:49;;;;;;;8.60;6.05;;;;;;;15.09;84.28;101191.44;4970310;28;20972;-82
2021/06/25 00:49:16;;;;;;;5.97;5.45;;;;;;;15.00;84.21;101187.19;4977701;28;20053;-83
2021/06/25 00:51:46;;;;;;;6.68;5.85;;;;;;;14.91;84.63;101188.22;4989077;28;20069;-82
2021/06/25 00:54:15;;;;;;;7.43;6.45;;;;;;;14.84;85.12;101187.47;4983934;28;20050;-82
2021/06/25 00:56:43;;;;;;;6.07;5.57;;;;;;;14.78;85.59;101187.56;4969899;28;20050;-82
2021/06/25 00:59:10;;;;;;;7.72;6.10;;;;;;;14.71;85.72;101189.44;4991379;28;20046;-83
2021/06/25 01:01:37;;;;;;;10.38;7.45;;;;;;;14.67;85.76;101203.59;4971017;28;20042;-82
2021/06/25 01:04:05;;;;;;;7.03;6.40;;;;;;;14.64;86.35;101197.47;4975766;28;20136;-83
2021/06/25 01:06:32;;;;;;;7.93;6.93;;;;;;;14.61;86.38;101189.63;4985271;28;20056;-82
2021/06/25 01:08:59;;;;;;;8.32;6.70;;;;;;;14.59;86.36;101196.66;4968948;28;20041;-82
2021/06/25 01:11:31;;;;;;;7.93;6.50;;;;;;;14.56;86.30;101193.19;4966965;28;20046;-82
2021/06/25 01:13:59;;;;;;;10.30;7.22;;;;;;;14.53;86.56;101192.38;4982212;28;20500;-82
2021/06/25 01:16:31;;;;;;;7.97;6.45;;;;;;;14.49;86.71;101190.69;4987223;28;20062;-82
2021/06/25 01:18:59;;;;;;;6.75;6.13;;;;;;;14.45;87.05;101189.00;4983473;28;20042;-80
2021/06/25 01:21:26;;;;;;;8.73;6.70;;;;;;;14.41;86.64;101185.53;4987024;28;20042;-84
2021/06/25 01:23:52;;;;;;;5.55;5.05;;;;;;;14.37;87.10;101183.88;4970643;28;20053;-83
2021/06/25 01:26:19;;;;;;;7.70;7.00;;;;;;;14.36;87.46;101171.59;4992690;28;20045;-82
2021/06/25 01:28:48;;;;;;;7.32;6.57;;;;;;;14.38;87.30;101178.56;4976844;28;20060;-82
2021/06/25 01:31:15;;;;;;;8.38;6.35;;;;;;;14.38;87.18;101175.94;4985362;28;20054;-82
2021/06/25 01:33:43;;;;;;;13.23;8.43;;;;;;;14.42;86.90;101175.88;4974442;28;20141;-83
2021/06/25 01:36:10;;;;;;;7.30;6.60;;;;;;;14.45;86.81;101184.59;5004872;28;20068;-82
2021/06/25 01:38:37;;;;;;;10.20;8.60;;;;;;;14.47;86.73;101177.56;4976219;28;20042;-81
2021/06/25 01:41:03;;;;;;;6.00;5.47;;;;;;;14.53;86.24;101176.56;4987730;28;20053;-83
2021/06/25 01:43:31;;;;;;;8.00;7.30;;;;;;;14.52;86.14;101166.91;4988492;28;20580;-82
2021/06/25 01:45:59;;;;;;;8.90;7.30;;;;;;;14.49;86.08;101170.47;5003184;28;20046;-83
2021/06/25 01:48:26;;;;;;;6.28;5.78;;;;;;;14.43;86.50;101162.69;5010625;28;20478;-83
2021/06/25 01:50:54;;;;;;;4.72;4.43;;;;;;;14.38;86.77;101164.53;4992892;28;20041;-84
2021/06/25 01:53:25;;;;;;;8.30;6.75;;;;;;;14.31;87.30;101166.38;4975070;28;20041;-83
2021/06/25 01:55:52;;;;;;;6.53;5.93;;;;;;;14.25;87.66;101158.59;4973422;28;20483;-82
2021/06/25 01:58:24;;;;;;;12.00;8.27;;;;;;;14.20;88.10;101163.06;5001376;28;20061;-82
2021/06/25 02:00:54;;;;;;;7.47;6.70;;;;;;;14.13;88.24;101159.66;4983926;28;20056;-82
2021/06/25 02:03:22;;;;;;;8.80;7.38;;;;;;;14.09;89.05;101167.63;5003389;28;20046;-83
2021/06/25 02:05:49;;;;;;;7.82;6.88;;;;;;;14.04;89.13;101163.31;5004962;28;20057;-82
2021/06/25 02:08:16;;;;;;;5.10;4.78;;;;;;;14.00;89.34;101161.63;4986656;28;20057;-82
2021/06/25 02:10:43;;;;;;;7.63;6.25;;;;;;;13.97;89.63;101164.28;4977791;28;20084;-82
2021/06/25 02:13:10;;;;;;;8.13;6.97;;;;;;;13.94;89.70;101172.22;4995022;28;20050;-81
2021/06/25 02:15:37;;;;;;;9.23;7.50;;;;;;;13.95;90.40;101173.09;4974060;28;20512;-81
2021/06/25 02:18:04;;;;;;;10.52;8.38;;;;;;;13.95;90.47;101173.09;4981668;28;20125;-83
2021/06/25 02:20:31;;;;;;;11.98;8.48;;;;;;;13.99;90.78;101166.91;4993921;28;20076;-83
2021/06/25 02:22:59;;;;;;;8.68;7.93;;;;;;;13.99;90.48;101169.53;4989373;28;20048;-83
2021/06/25 02:25:26;;;;;;;7.85;7.07;;;;;;;14.01;90.48;101159.84;4984629;28;20053;-83
2021/06/25 02:27:53;;;;;;;8.68;7.80;;;;;;;14.05;90.32;101165.03;5003812;28;20759;-83
2021/06/25 02:30:20;;;;;;;11.13;8.27;;;;;;;14.13;90.35;101161.41;5002691;28;20041;-82
2021/06/25 02:32:49;;;;;;;8.88;7.68;;;;;;;14.22;90.38;101158.63;4980692;28;20064;-82
2021/06/25 02:35:17;;;;;;;9.02;8.10;;;;;;;14.27;89.86;101158.56;4972240;28;20045;-82
2021/06/25 02:37:44;;;;;;;8.52;7.70;;;;;;;14.32;89.96;101167.25;4985555;28;20066;-83
2021/06/25 02:40:13;;;;;;;8.02;7.32;;;;;;;14.37;89.39;101166.28;4977227;28;20409;-84
2021/06/25 02:42:41;;;;;;;7.75;6.95;;;;;;;14.44;89.44;101163.56;4975277;28;20353;-82
2021/06/25 02:45:10;;;;;;;15.13;9.30;;;;;;;14.51;89.07;101160.78;4980729;28;20045;-84
2021/06/25 02:47:38;;;;;;;9.32;8.13;;;;;;;14.55;88.78;101151.06;4997031;28;20046;-81
2021/06/25 02:50:07;;;;;;;8.95;7.85;;;;;;;14.60;88.47;101148.34;5002058;28;20148;-82
2021/06/25 02:52:35;;;;;;;10.55;9.55;;;;;;;14.62;88.37;101138.66;4985191;28;20496;-82
2021/06/25 02:55:02;;;;;;;10.60;9.05;;;;;;;14.65;88.31;101134.25;4973429;28;20402;-84
2021/06/25 02:57:29;;;;;;;10.30;8.48;;;;;;;14.68;88.29;101130.69;4989146;28;20724;-82
2021/06/25 02:59:56;;;;;;;13.18;9.98;;;;;;;14.70;88.14;101131.50;4984777;28;20160;-82
2021/06/25 03:02:22;;;;;;;8.95;8.02;;;;;;;14.74;88.19;101121.78;4972280;28;20049;-82
2021/06/25 03:04:50;;;;;;;8.80;6.88;;;;;;;14.76;87.81;101118.22;4965673;28;20194;-81
2021/06/25 03:07:18;;;;;;;10.98;7.78;;;;;;;14.78;87.65;101121.69;4983418;28;20061;-81
2021/06/25 03:09:44;;;;;;;12.00;7.55;;;;;;;14.80;87.46;101119.03;5003574;28;20045;-82
2021/06/25 03:12:13;;;;;;;11.27;8.30;;;;;;;14.83;87.65;101118.97;4973211;28;20062;-82
2021/06/25 03:14:41;;;;;;;8.70;7.78;;;;;;;14.85;87.39;101115.41;4969948;28;20048;-82
2021/06/25 03:17:10;;;;;;;6.88;6.28;;;;;;;14.83;87.08;101109.28;4990599;28;20049;-82
2021/06/25 03:19:37;;;;;;;9.45;7.57;;;;;;;14.79;87.33;101104.13;4980668;28;20049;-82
2021/06/25 03:22:06;;;;;;;8.30;7.45;;;;;;;14.77;87.17;101109.44;4972326;28;20141;-82
2021/06/25 03:24:34;;;;;;;7.18;6.57;;;;;;;14.77;87.53;101117.34;4987017;28;20046;-82
2021/06/25 03:27:01;;;;;;;11.88;7.10;;;;;;;14.78;87.64;101110.28;4990692;28;20046;-85
2021/06/25 03:29:28;;;;;;;7.45;6.78;;;;;;;14.79;87.43;101118.16;4983024;28;20041;-84
2021/06/25 03:31:55;;;;;;;8.57;7.30;;;;;;;14.81;87.27;101119.00;4986600;28;20042;-82
2021/06/25 03:34:23;;;;;;;7.43;6.70;;;;;;;14.82;86.94;101120.75;4972967;28;20137;-83
2021/06/25 03:36:50;;;;;;;7.93;7.13;;;;;;;14.83;87.44;101119.84;4974449;28;20385;-82
2021/06/25 03:39:17;;;;;;;7.35;5.70;;;;;;;14.86;86.75;101116.25;4989197;28;20136;-82
2021/06/25 03:41:44;;;;;;;6.93;5.95;;;;;;;14.90;86.96;101115.34;4993044;28;20053;-82
2021/06/25 03:44:12;;;;;;;6.30;5.72;;;;;;;14.92;86.90;101110.88;4978467;28;20064;-82
2021/06/25 03:46:38;;;;;;;7.90;7.20;;;;;;;14.91;86.71;101109.13;4970632;28;20046;-83
2021/06/25 03:49:07;;;;;;;9.50;7.82;;;;;;;14.92;86.67;101105.63;5003176;28;20428;-82
2021/06/25 03:51:34;;;;;;;8.32;6.50;;;;;;;14.90;86.44;101099.53;4991648;28;20041;-83
2021/06/25 03:54:03;;;;;;;7.95;6.88;;;;;;;14.86;86.66;101098.72;4990064;28;20049;-84
2021/06/25 03:56:31;;;;;;;7.55;6.68;;;;;;;14.82;86.96;101099.66;4992027;28;20050;-81
2021/06/25 03:59:00;;;;;;;6.13;5.63;;;;;;;14.81;87.19;101107.56;4988377;28;20077;-82
2021/06/25 04:01:27;;;;;;;8.43;6.30;;;;;;;14.80;87.53;101112.00;4995072;28;20192;-84
2021/06/25 04:03:54;;;;;;;6.75;6.15;;;;;;;14.80;87.31;101111.13;5006791;28;20072;-83
2021/06/25 04:06:20;;;;;;;6.13;5.07;;;;;;;14.80;87.26;101113.78;4971206;28;20052;-85
2021/06/25 04:08:49;;;;;;;7.10;6.47;;;;;;;14.82;87.19;101114.59;5000604;28;20116;-84
2021/06/25 04:11:18;;;;;;;7.95;7.13;;;;;;;14.85;87.02;101107.50;4988254;28;20502;-83
2021/06/25 04:13:44;;;;;;;11.15;7.22;;;;;;;14.88;86.89;101109.22;4988142;28;20046;-84
2021/06/25 04:16:11;;;;;;;7.97;7.18;;;;;;;14.92;86.77;101107.38;4989837;28;20041;-84
2021/06/25 04:18:39;;;;;;;6.78;6.18;;;;;;;14.96;86.43;101109.91;4993032;28;20508;-82
2021/06/25 04:21:06;;;;;;;8.98;7.47;;;;;;;14.98;86.62;101113.41;4996280;28;20089;-83
2021/06/25 04:23:33;;;;;;;7.93;6.63;;;;;;;14.96;86.76;101107.28;4997952;28;20097;-84
2021/06/25 04:26:01;;;;;;;10.18;7.82;;;;;;;14.91;86.85;101105.66;4991905;28;20073;-83
2021/06/25 04:28:30;;;;;;;9.45;8.05;;;;;;;14.85;87.16;101109.28;4993962;28;20025;-83
2021/06/25 04:30:56;;;;;;;12.43;7.70;;;;;;;14.81;87.44;101104.94;4994692;28;20041;-83
2021/06/25 04:33:24;;;;;;;8.60;7.70;;;;;;;14.82;87.33;101107.56;4990462;28;20041;-83
2021/06/25 04:35:53;;;;;;;11.13;8.27;;;;;;;14.84;87.34;101113.66;4996399;28;20037;-84
2021/06/25 04:38:21;;;;;;;8.75;7.80;;;;;;;14.88;87.30;101119.75;4996090;28;20080;-82
2021/06/25 04:40:49;;;;;;;8.15;7.35;;;;;;;14.96;86.92;101119.59;4989021;28;20065;-85
2021/06/25 04:43:17;;;;;;;8.88;7.25;;;;;;;15.06;86.83;101118.53;4994538;28;20041;-82
2021/06/25 04:45:45;;;;;;;9.27;7.03;;;;;;;15.13;86.35;101120.13;4995189;28;20123;-83
2021/06/25 04:48:17;;;;;;;14.10;7.47;;;;;;;15.20;86.13;101121.75;4980777;28;20489;-84
2021/06/25 04:50:46;;;;;;;9.68;7.10;;;;;;;15.26;85.78;101114.59;4976117;28;20493;-82
2021/06/25 04:53:14;;;;;;;7.05;6.35;;;;;;;15.32;85.49;101111.84;4993519;28;20049;-81
2021/06/25 04:55:43;;;;;;;8.23;7.35;;;;;;;15.39;85.26;101118.72;5003734;28;20052;-83
2021/06/25 04:58:16;;;;;;;10.95;8.52;;;;;;;15.46;85.09;101116.81;4984462;28;20053;-83
2021/06/25 05:00:45;;;;;;;;;;;;;;;15.46;84.72;101120.34;4995719;28;20073;-83
2021/06/25 05:03:12;;;;;;;6.93;6.38;;;;;;;15.49;84.43;101114.97;4994822;28;20399;-82
2021/06/25 05:05:42;;;;;;;11.23;7.82;;;;;;;15.50;84.30;101119.34;4991649;28;20046;-84
2021/06/25 05:08:12;;;;;;;8.50;7.50;;;;;;;15.46;84.64;101112.41;4975340;28;20078;-83
2021/06/25 05:10:41;;;;;;;10.60;8.23;;;;;;;15.44;84.90;101114.22;5010445;28;20070;-80
2021/06/25 05:13:13;;;;;;;10.45;7.65;;;;;;;15.43;84.72;101111.59;4995467;28;20050;-83
2021/06/25 05:15:40;;;;;;;10.05;8.18;;;;;;;15.44;84.87;101113.34;4980302;28;20050;-83
2021/06/25 05:18:20;;;;;;;9.00;8.10;;;;;;;15.45;84.90;101109.78;4981726;28;20423;-86
2021/06/25 05:20:49;;;;;;;9.90;8.30;;;;;;;15.47;84.67;101106.22;5001750;28;20555;-82
2021/06/25 05:23:19;;;;;;;10.63;9.38;;;;;;;15.48;84.83;101110.59;4982656;28;20058;-83
2021/06/25 05:25:47;;;;;;;12.32;8.35;;;;;;;15.49;85.02;101116.75;5000830;28;20107;-83
2021/06/25 05:28:15;;;;;;;9.18;8.07;;;;;;;15.51;84.81;101112.31;4994920;28;20045;-82
2021/06/25 05:30:43;;;;;;;11.48;7.93;;;;;;;15.58;84.36;101113.91;5001786;28;20045;-83
2021/06/25 05:33:10;;;;;;;7.18;6.00;;;;;;;15.67;83.50;101111.06;4995952;28;20057;-83
2021/06/25 05:35:38;;;;;;;8.80;7.93;;;;;;;15.76;82.66;101110.00;4998167;28;20050;-83
2021/06/25 05:38:13;;;;;;;11.32;9.65;;;;;;;15.84;81.92;101112.47;4979269;28;20084;-84
2021/06/25 05:40:42;;;;;;;10.52;9.50;;;;;;;15.88;81.83;101116.78;4995918;28;20057;-82
2021/06/25 05:43:10;;;;;;;11.13;9.50;;;;;;;15.92;81.67;101118.44;4982431;28;20057;-82
2021/06/25 05:45:38;;;;;;;12.60;10.80;;;;;;;16.08;81.45;101112.78;4966960;28;20038;-84
2021/06/25 05:48:06;;;;;;;14.20;9.75;;;;;;;16.24;80.55;101110.63;4998999;28;20058;-83
2021/06/25 05:50:33;;;;;;;13.55;11.15;;;;;;;16.38;79.29;101117.28;5009822;28;20486;-84
2021/06/25 05:53:03;;;;;;;17.98;11.18;;;;;;;16.48;78.56;101115.28;5000243;28;20056;-84
2021/06/25 05:55:29;;;;;;;13.68;10.45;;;;;;;16.59;77.73;101119.41;4993109;28;20056;-83
2021/06/25 05:57:56;;;;;;;11.98;9.18;;;;;;;16.71;77.20;101119.06;4993362;28;20533;-84
2021/06/25 06:00:23;;;;;;;14.15;10.40;;;;;;;16.91;76.34;101110.66;5006534;28;20038;-84
2021/06/25 06:02:54;;;;;;;17.60;10.05;;;;;;;17.22;73.84;101119.47;5010363;28;20543;-84
2021/06/25 06:05:21;;;;;;;9.02;7.90;;;;;;;17.49;72.91;101113.34;4981364;28;20069;-82
2021/06/25 06:07:48;;;;;;;11.43;9.48;;;;;;;17.70;71.75;101118.91;4978834;28;20054;-83
2021/06/25 06:10:17;;;;;;;14.48;10.45;;;;;;;17.78;70.71;101123.94;4978779;28;20385;-83
2021/06/25 06:12:45;;;;;;;9.93;9.02;;;;;;;17.72;70.83;101129.44;4999292;28;20062;-84
2021/06/25 06:15:15;;;;;;;9.23;7.18;;;;;;;17.61;70.57;101130.66;4998845;28;20037;-82
2021/06/25 06:17:44;;;;;;;7.60;6.97;;;;;;;17.51;70.67;101137.16;4990867;28;20049;-83
2021/06/25 06:20:16;;;;;;;6.93;6.30;;;;;;;17.46;70.65;101133.78;4978458;28;20432;-84
2021/06/25 06:31:15;;;;;;;10.10;9.05;;;;;;;17.61;69.49;101132.41;4989914;28;19925;-83
2021/06/25 06:33:48;;;;;;;11.35;8.85;;;;;;;17.65;69.89;101134.06;5006243;28;20049;-84
2021/06/25 06:36:26;;;;;;;17.83;10.55;;;;;;;17.71;69.35;101133.03;4967511;28;20120;-83
2021/06/25 06:38:55;;;;;;;14.00;11.18;;;;;;;17.75;69.35;101132.84;4996852;28;20140;-84
2021/06/25 06:41:23;;;;;;;12.23;10.80;;;;;;;17.77;69.30;101136.34;4988542;28;20326;-85
2021/06/25 06:43:49;;;;;;;36.25;11.98;;;;;;;17.69;69.68;101136.56;4993033;28;20061;-84
2021/06/25 06:46:17;;;;;;;11.48;9.15;;;;;;;17.65;70.10;101136.69;4976102;28;20519;-83
2021/06/25 06:48:47;;;;;;;13.20;9.77;;;;;;;17.64;70.50;101132.34;4993964;28;20042;-83
2021/06/25 06:51:19;;;;;;;10.65;9.00;;;;;;;17.68;70.88;101141.91;4977458;28;20655;-83
2021/06/25 06:53:48;;;;;;;13.43;10.55;;;;;;;17.70;70.64;101132.13;4998148;28;20113;-82
2021/06/25 06:56:22;;;;;;;12.02;10.18;;;;;;;17.70;70.13;101134.78;4978325;28;20045;-83
2021/06/25 06:58:51;;;;;;;12.20;10.32;;;;;;;17.77;70.27;101138.97;5004656;28;20073;-85
2021/06/25 07:01:20;;;;;;;10.63;9.52;;;;;;;17.95;69.88;101137.56;4995646;28;20048;-82
2021/06/25 07:03:49;;;;;;;12.15;10.57;;;;;;;18.26;69.05;101138.34;4977875;28;20052;-83
2021/06/25 07:06:16;;;;;;;13.32;9.75;;;;;;;18.60;67.75;101137.19;4981197;28;20049;-81
2021/06/25 07:08:44;;;;;;;9.52;8.38;;;;;;;18.90;66.82;101131.75;4993208;28;20038;-83
2021/06/25 07:11:15;;;;;;;12.30;9.88;;;;;;;19.22;65.30;101135.03;4993583;28;20452;-83
2021/06/25 07:13:42;;;;;;;10.80;9.48;;;;;;;19.49;64.65;101141.94;4997912;28;20050;-85
2021/06/25 07:16:13;;;;;;;10.50;9.45;;;;;;;19.66;64.08;101130.66;4976477;28;20045;-84
2021/06/25 07:18:44;;;;;;;10.95;9.57;;;;;;;19.79;63.38;101139.00;4991265;28;20081;-83
2021/06/25 07:21:11;;;;;;;9.63;8.73;;;;;;;19.79;63.32;101136.34;4976849;28;20045;-85
2021/06/25 07:23:39;;;;;;;11.60;10.40;;;;;;;19.81;62.69;101138.94;4987880;28;20046;-83
2021/06/25 07:26:06;;;;;;;10.82;9.50;;;;;;;19.90;62.98;101129.78;4988319;28;20049;-85
2021/06/25 07:28:32;;;;;;;10.95;9.73;;;;;;;20.15;62.19;101133.16;4989138;28;20202;-84
2021/06/25 07:30:59;;;;;;;11.82;10.70;;;;;;;20.59;60.90;101128.66;4985106;28;20046;-83
2021/06/25 07:33:29;;;;;;;13.77;11.07;;;;;;;21.03;59.10;101123.22;4984777;28;20453;-83
2021/06/25 07:35:56;;;;;;;13.13;10.73;;;;;;;21.40;58.20;101116.16;4988300;28;20049;-84
2021/06/25 07:38:24;;;;;;;12.35;11.18;;;;;;;21.66;57.09;101121.25;4970881;28;20814;-84
2021/06/25 07:40:57;;;;;;;11.82;10.55;;;;;;;21.69;55.81;101118.41;4984764;28;20038;-84
2021/06/25 07:43:24;;;;;;;12.40;9.93;;;;;;;21.53;56.64;101121.78;4969171;28;20046;-82
2021/06/25 07:45:53;;;;;;;12.23;10.20;;;;;;;21.52;56.53;101125.38;4983931;28;20445;-84
2021/06/25 07:48:22;;;;;;;12.95;10.55;;;;;;;21.47;56.72;101122.94;4967613;28;20046;-83
2021/06/25 07:50:49;;;;;;;11.32;9.90;;;;;;;21.60;56.44;101119.72;4969149;28;20053;-85
2021/06/25 07:53:16;;;;;;;13.80;12.15;;;;;;;21.85;55.87;101114.06;4985787;28;20050;-84
2021/06/25 07:55:43;;;;;;;9.85;8.48;;;;;;;22.05;55.16;101113.06;4967209;28;20049;-83
2021/06/25 07:58:16;;;;;;;12.00;10.82;;;;;;;22.11;54.46;101115.44;4973685;28;20130;-82
2021/06/25 08:00:43;;;;;;;8.70;7.95;;;;;;;21.94;55.62;101120.75;4964542;28;20049;-84
2021/06/25 08:03:10;;;;;;;10.52;9.38;;;;;;;21.71;55.99;101121.88;4984439;28;20109;-84
2021/06/25 08:05:39;;;;;;;11.63;10.23;;;;;;;21.41;56.90;101125.03;4984339;28;20046;-83
2021/06/25 08:08:07;;;;;;;13.43;10.85;;;;;;;21.08;57.75;101123.88;4984491;28;20042;-82
2021/06/25 08:10:39;;;;;;;11.35;9.80;;;;;;;20.79;58.84;101125.16;4968097;28;20667;-83
2021/06/25 08:13:06;;;;;;;8.88;7.97;;;;;;;20.60;59.65;101133.91;4986664;28;20058;-84
2021/06/25 08:15:33;;;;;;;11.70;9.88;;;;;;;20.40;60.13;101125.94;4970376;28;20072;-84
2021/06/25 08:18:00;;;;;;;12.63;9.27;;;;;;;20.15;60.94;101124.31;4967457;28;20049;-81
2021/06/25 08:20:29;;;;;;;15.20;10.80;;;;;;;19.94;61.16;101124.25;4985176;28;20050;-82
2021/06/25 08:22:56;;;;;;;10.38;9.43;;;;;;;19.79;61.89;101119.53;4975513;28;20451;-82
2021/06/25 08:25:24;;;;;;;10.93;8.23;;;;;;;19.69;62.10;101123.50;4980556;28;20186;-83
2021/06/25 08:27:50;;;;;;;10.93;9.57;;;;;;;19.59;62.34;101115.88;4982511;28;20042;-82
2021/06/25 08:30:18;;;;;;;10.93;9.88;;;;;;;19.50;63.20;101119.78;4980246;28;20050;-82
2021/06/25 08:32:46;;;;;;;11.25;8.57;;;;;;;19.41;63.48;101120.13;4967285;28;20105;-82
2021/06/25 08:35:13;;;;;;;10.77;9.70;;;;;;;19.35;64.11;101120.34;4975074;28;20055;-83
2021/06/25 08:37:40;;;;;;;7.88;7.15;;;;;;;19.31;64.29;101119.59;4992080;28;20046;-83
2021/06/25 08:40:09;;;;;;;12.35;10.50;;;;;;;19.29;64.53;101123.25;5004479;28;20061;-82
2021/06/25 08:42:40;;;;;;;10.20;9.20;;;;;;;19.31;64.73;101118.75;4989015;28;20038;-84
2021/06/25 08:45:11;;;;;;;10.57;9.57;;;;;;;19.34;64.48;101111.50;4988744;28;20077;-82
2021/06/25 08:47:48;;;;;;;10.02;9.07;;;;;;;19.46;64.07;101111.97;4987835;28;20041;-83
2021/06/25 08:50:19;;;;;;;12.98;11.10;;;;;;;19.58;63.47;101114.16;4997453;28;20047;-84
2021/06/25 08:52:49;;;;;;;12.80;11.57;;;;;;;19.62;63.25;101118.41;4972959;28;20042;-83
2021/06/25 08:55:18;;;;;;;10.73;9.82;;;;;;;19.62;62.94;101120.19;4983733;28;20054;-83
2021/06/25 08:57:46;;;;;;;13.10;11.80;;;;;;;19.56;63.79;101110.69;4981957;28;20563;-83
2021/06/25 09:00:16;;;;;;;14.45;12.05;;;;;;;19.44;64.57;101114.69;4968243;28;20045;-82
2021/06/25 09:02:47;;;;;;;14.15;11.05;;;;;;;19.32;65.41;101115.16;4967407;28;20556;-83
2021/06/25 09:05:34;;;;;;;15.05;12.75;;;;;;;19.19;66.91;101114.78;4994061;28;20466;-82
2021/06/25 09:08:01;;;;;;;14.18;11.70;;;;;;;19.11;66.42;101119.47;4987623;28;20038;-85
2021/06/25 09:10:39;;;;;;;12.98;11.70;;;;;;;19.04;67.19;101118.00;4968292;28;20061;-82
2021/06/25 09:13:11;;;;;;;14.13;11.13;;;;;;;19.03;67.19;101122.41;4983203;28;20173;-85
2021/06/25 09:15:40;;;;;;;13.90;12.10;;;;;;;18.96;67.50;101119.13;4981207;28;20042;-84
2021/06/25 09:18:13;;;;;;;12.77;11.63;;;;;;;18.93;67.96;101121.03;4981900;28;20062;-84
2021/06/25 09:20:51;;;;;;;13.63;11.65;;;;;;;18.93;68.25;101127.22;4987211;28;20046;-84
2021/06/25 09:23:34;;;;;;;13.30;11.45;;;;;;;18.94;68.79;101126.28;4984521;28;20041;-82
2021/06/25 09:26:06;;;;;;;12.17;10.83;;;;;;;18.93;69.11;101121.91;4989548;28;20493;-82
2021/06/25 09:28:46;;;;;;;12.73;10.43;;;;;;;18.91;69.36;101115.78;4982604;28;20050;-84
2021/06/25 09:31:24;;;;;;;11.55;10.27;;;;;;;18.89;69.36;101117.63;4984526;28;20051;-86
2021/06/25 09:33:58;;;;;;;12.98;11.68;;;;;;;18.84;69.59;101112.44;4988438;28;20054;-82
2021/06/25 09:36:28;;;;;;;13.63;10.63;;;;;;;18.78;69.53;101122.41;4981945;28;20038;-82
2021/06/25 09:39:16;;;;;;;14.88;13.32;;;;;;;18.64;70.16;101118.47;4968193;28;20483;-83
2021/06/25 09:41:47;;;;;;;18.38;14.73;;;;;;;18.50;70.67;101124.25;4980933;28;20042;-84
2021/06/25 09:44:19;;;;;;;14.02;12.63;;;;;;;18.34;71.67;101125.69;4998885;28;20042;-81
2021/06/25 09:46:51;;;;;;;16.08;13.55;;;;;;;18.24;71.88;101129.56;4980312;28;20046;-82
2021/06/25 09:49:26;;;;;;;14.68;13.07;;;;;;;18.14;73.23;101131.66;4983816;28;20149;-82
2021/06/25 09:52:02;;;;;;;13.02;11.75;;;;;;;18.00;74.94;101133.00;4982216;28;20046;-82
2021/06/25 09:54:32;;;;;;;15.18;13.73;;;;;;;17.88;76.91;101132.50;4972956;28;20060;-84
2021/06/25 09:57:08;;;;;;;13.73;12.32;;;;;;;17.74;78.31;101131.13;4965337;28;20062;-84
2021/06/25 09:59:57;;;;;;;15.68;14.00;;;;;;;17.60;80.53;101128.91;4964985;28;20045;-84
2021/06/25 10:02:28;;;;;;;16.67;13.82;;;;;;;17.41;81.97;101128.59;4971662;28;20543;-84
2021/06/25 10:05:12;;;;;;;18.73;16.52;;;;;;;17.25;83.03;101122.00;4987386;28;20058;-85
2021/06/25 10:07:41;;;;;;;19.15;15.63;;;;;;;17.14;84.44;101119.69;4989468;28;20061;-84
2021/06/25 10:10:10;;;;;;;21.02;17.50;;;;;;;17.15;84.53;101118.78;4988110;28;20062;-84
2021/06/25 10:12:40;;;;;;;20.75;15.73;;;;;;;17.25;84.15;101124.66;4954560;28;20046;-84
2021/06/25 10:15:09;;;;;;;19.85;15.68;;;;;;;17.48;84.21;101126.63;4971247;28;20058;-83
2021/06/25 10:17:36;;;;;;;21.30;16.90;;;;;;;17.75;82.67;101124.06;4990184;28;20053;-84
2021/06/25 10:20:14;;;;;;;18.27;16.33;;;;;;;17.99;81.05;101117.13;4987366;28;20121;-84
2021/06/25 10:22:51;;;;;;;17.75;15.77;;;;;;;18.22;80.13;101123.47;4998389;28;20050;-82
2021/06/25 10:25:19;;;;;;;25.42;16.02;;;;;;;18.37;78.80;101122.97;4973426;28;20065;-82
2021/06/25 10:27:50;;;;;;;26.40;19.40;;;;;;;18.54;77.61;101113.53;4988843;28;20042;-83
2021/06/25 10:30:18;;;;;;;19.20;16.77;;;;;;;18.70;76.12;101113.88;5000630;28;20050;-82
2021/06/25 10:32:45;;;;;;;20.13;16.98;;;;;;;18.83;75.35;101112.50;4969640;28;20039;-83
2021/06/25 10:35:13;;;;;;;16.73;14.93;;;;;;;19.02;75.09;101115.41;4970720;28;20054;-83
2021/06/25 10:37:46;;;;;;;15.35;13.23;;;;;;;19.29;73.50;101108.16;4986656;28;20070;-82
2021/06/25 10:40:29;;;;;;;14.70;13.30;;;;;;;19.63;70.38;101104.22;4969377;28;20101;-83
2021/06/25 10:42:57;;;;;;;18.50;14.40;;;;;;;20.23;69.08;101111.53;5002707;28;20052;-83
2021/06/25 10:45:45;;;;;;;17.25;15.25;;;;;;;21.38;65.19;101099.41;4971662;28;20096;-83
2021/06/25 10:48:12;;;;;;;13.52;12.13;;;;;;;22.79;60.56;101095.97;4988312;28;20050;-82
2021/06/25 10:50:39;;;;;;;13.75;12.32;;;;;;;24.84;54.62;101095.09;4984836;28;20050;-83
2021/06/25 10:53:20;;;;;;;12.85;11.32;;;;;;;26.18;49.78;101099.88;4982164;28;20038;-84
2021/06/25 10:56:06;;;;;;;13.13;10.93;;;;;;;26.65;48.14;101094.00;4981073;28;20051;-83
2021/06/25 10:58:36;;;;;;;16.40;12.73;;;;;;;26.72;48.50;101096.19;4973748;28;20451;-83
2021/06/25 11:01:05;;;;;;;12.57;11.43;;;;;;;27.16;46.68;101095.81;4984536;28;20110;-84
2021/06/25 11:03:45;;;;;;;13.77;12.48;;;;;;;28.40;43.83;101098.31;4981031;28;20043;-83
2021/06/25 11:06:38;;;;;;;14.90;13.13;;;;;;;29.81;39.33;101093.34;4982095;28;20042;-83
2021/06/25 11:09:08;;;;;;;13.50;12.20;;;;;;;31.21;37.59;101086.84;4987357;28;20042;-85
2021/06/25 11:11:35;;;;;;;13.43;11.93;;;;;;;32.07;35.27;101092.53;4970415;28;20924;-83
2021/06/25 11:14:26;;;;;;;14.27;12.88;;;;;;;32.10;33.19;101086.81;4954807;28;20054;-86
2021/06/25 11:16:55;;;;;;;14.32;12.95;;;;;;;31.88;35.04;101095.25;4986913;28;20100;-84
2021/06/25 11:19:41;;;;;;;13.20;11.93;;;;;;;31.04;34.47;101093.72;4995550;28;20052;-83
2021/06/25 11:22:40;;;;;;;15.60;14.15;;;;;;;29.88;36.33;101093.72;4973796;28;20054;-85
2021/06/25 11:25:15;;;;;;;11.90;10.73;;;;;;;29.81;37.56;101087.94;4984412;28;20047;-85
2021/06/25 11:28:24;;;;;;;15.35;11.90;;;;;;;30.38;36.86;101090.41;4973680;28;20131;-85
2021/06/25 11:31:18;;;;;;;12.20;11.05;;;;;;;31.88;33.57;101087.97;4990695;28;20057;-85
2021/06/25 11:33:50;;;;;;;13.90;12.57;;;;;;;32.68;31.35;101084.97;5009459;28;20054;-84
2021/06/25 11:36:41;;;;;;;13.27;12.07;;;;;;;32.50;31.50;101090.31;5010486;28;20027;-83
2021/06/25 11:39:20;;;;;;;14.45;13.02;;;;;;;32.22;31.56;101083.97;5017674;28;20091;-85